Terminal Aerodrome Forecast
Issued by NWS

Home | Current Version | Previous Version | Text Only | Print | Product List | Glossary On
Versions: 1 2 3 4 5 6 7 8 9 10 11 12 13 14 15 16 17 18 19 20 21 22 23 24 25 26 27
000
FTUS46 KSGX 260915 AAA
TAFSAN
TAF AMD
KSAN 260915Z 2609/2712 VRB05KT P6SM FEW010 FEW030 BKN250
     FM261900 26009KT P6SM FEW015 SCT250
     FM270200 VRB06KT P6SM SCT012 SCT250
     FM270900 18006KT P6SM BKN012=

USA.gov is the U.S. government's official web portal to all federal, state and local government web resources and services.